sensor_id;sensor_type;location;lat;lon;timestamp;P1;durP1;ratioP1;P2;durP2;ratioP2
3843;SDS011;1937;51.444;6.484;2022-11-15T00:01:19;15.00;;;9.17;;
3843;SDS011;1937;51.444;6.484;2022-11-15T00:03:50;19.97;;;10.03;;
3843;SDS011;1937;51.444;6.484;2022-11-15T00:06:18;14.80;;;9.50;;
3843;SDS011;1937;51.444;6.484;2022-11-15T00:08:46;15.00;;;10.13;;
3843;SDS011;1937;51.444;6.484;2022-11-15T00:11:15;14.90;;;9.50;;
3843;SDS011;1937;51.444;6.484;2022-11-15T00:13:44;18.00;;;10.60;;
3843;SDS011;1937;51.444;6.484;2022-11-15T00:16:12;18.07;;;9.23;;
3843;SDS011;1937;51.444;6.484;2022-11-15T00:18:41;14.10;;;8.07;;
3843;SDS011;1937;51.444;6.484;2022-11-15T00:21:11;15.90;;;10.20;;
3843;SDS011;1937;51.444;6.484;2022-11-15T00:23:41;15.27;;;9.20;;
3843;SDS011;1937;51.444;6.484;2022-11-15T00:26:11;17.10;;;9.87;;
3843;SDS011;1937;51.444;6.484;2022-11-15T00:28:40;16.50;;;10.00;;
3843;SDS011;1937;51.444;6.484;2022-11-15T00:31:11;20.50;;;10.50;;
3843;SDS011;1937;51.444;6.484;2022-11-15T00:33:42;16.47;;;10.93;;
3843;SDS011;1937;51.444;6.484;2022-11-15T00:36:11;11.67;;;9.70;;
3843;SDS011;1937;51.444;6.484;2022-11-15T00:38:39;20.30;;;10.07;;
3843;SDS011;1937;51.444;6.484;2022-11-15T00:41:08;14.47;;;9.03;;
3843;SDS011;1937;51.444;6.484;2022-11-15T00:43:37;15.47;;;9.37;;
3843;SDS011;1937;51.444;6.484;2022-11-15T00:46:09;13.73;;;9.60;;
3843;SDS011;1937;51.444;6.484;2022-11-15T00:48:38;14.13;;;10.43;;
3843;SDS011;1937;51.444;6.484;2022-11-15T00:51:07;17.70;;;10.83;;
3843;SDS011;1937;51.444;6.484;2022-11-15T00:53:36;13.60;;;9.20;;
3843;SDS011;1937;51.444;6.484;2022-11-15T00:56:05;16.93;;;10.67;;
3843;SDS011;1937;51.444;6.484;2022-11-15T00:58:34;16.50;;;8.60;;
3843;SDS011;1937;51.444;6.484;2022-11-15T01:01:06;16.73;;;9.83;;
3843;SDS011;1937;51.444;6.484;2022-11-15T01:03:34;13.93;;;10.83;;
3843;SDS011;1937;51.444;6.484;2022-11-15T01:06:04;16.00;;;10.20;;
3843;SDS011;1937;51.444;6.484;2022-11-15T01:08:37;14.50;;;9.20;;
3843;SDS011;1937;51.444;6.484;2022-11-15T01:11:06;16.40;;;8.70;;
3843;SDS011;1937;51.444;6.484;2022-11-15T01:13:37;19.23;;;9.50;;
3843;SDS011;1937;51.444;6.484;2022-11-15T01:16:06;14.43;;;9.27;;
3843;SDS011;1937;51.444;6.484;2022-11-15T01:18:39;17.03;;;9.97;;
3843;SDS011;1937;51.444;6.484;2022-11-15T01:21:07;15.47;;;9.00;;
3843;SDS011;1937;51.444;6.484;2022-11-15T01:23:38;17.17;;;9.37;;
3843;SDS011;1937;51.444;6.484;2022-11-15T01:26:07;15.13;;;9.53;;
3843;SDS011;1937;51.444;6.484;2022-11-15T01:28:38;14.80;;;8.90;;
3843;SDS011;1937;51.444;6.484;2022-11-15T01:31:10;14.80;;;9.40;;
3843;SDS011;1937;51.444;6.484;2022-11-15T01:33:43;12.23;;;8.60;;
3843;SDS011;1937;51.444;6.484;2022-11-15T01:36:13;16.93;;;9.73;;
3843;SDS011;1937;51.444;6.484;2022-11-15T01:38:43;12.10;;;9.20;;
3843;SDS011;1937;51.444;6.484;2022-11-15T01:41:14;17.50;;;8.97;;
3843;SDS011;1937;51.444;6.484;2022-11-15T01:43:46;11.77;;;8.33;;
3843;SDS011;1937;51.444;6.484;2022-11-15T01:46:22;14.53;;;8.37;;
3843;SDS011;1937;51.444;6.484;2022-11-15T01:48:53;11.93;;;8.90;;
3843;SDS011;1937;51.444;6.484;2022-11-15T01:51:24;12.77;;;9.30;;
3843;SDS011;1937;51.444;6.484;2022-11-15T01:53:59;13.03;;;8.43;;
3843;SDS011;1937;51.444;6.484;2022-11-15T01:56:33;14.33;;;9.23;;
3843;SDS011;1937;51.444;6.484;2022-11-15T01:59:09;11.40;;;8.47;;
3843;SDS011;1937;51.444;6.484;2022-11-15T02:01:39;16.67;;;8.40;;
3843;SDS011;1937;51.444;6.484;2022-11-15T02:04:10;17.20;;;9.33;;
3843;SDS011;1937;51.444;6.484;2022-11-15T02:06:42;18.97;;;9.20;;
3843;SDS011;1937;51.444;6.484;2022-11-15T02:09:13;12.00;;;8.20;;
3843;SDS011;1937;51.444;6.484;2022-11-15T02:11:42;11.20;;;8.30;;
3843;SDS011;1937;51.444;6.484;2022-11-15T02:14:12;16.17;;;8.80;;
3843;SDS011;1937;51.444;6.484;2022-11-15T02:16:47;12.10;;;8.83;;
3843;SDS011;1937;51.444;6.484;2022-11-15T02:19:28;16.03;;;8.60;;
3843;SDS011;1937;51.444;6.484;2022-11-15T02:22:14;13.10;;;9.10;;
3843;SDS011;1937;51.444;6.484;2022-11-15T02:25:00;15.27;;;10.33;;
3843;SDS011;1937;51.444;6.484;2022-11-15T02:27:38;16.30;;;9.30;;
3843;SDS011;1937;51.444;6.484;2022-11-15T02:30:36;12.70;;;8.50;;
3843;SDS011;1937;51.444;6.484;2022-11-15T02:33:10;13.57;;;7.90;;
3843;SDS011;1937;51.444;6.484;2022-11-15T02:35:48;13.40;;;8.50;;
3843;SDS011;1937;51.444;6.484;2022-11-15T02:38:26;14.50;;;8.63;;
3843;SDS011;1937;51.444;6.484;2022-11-15T02:40:59;14.07;;;7.93;;
3843;SDS011;1937;51.444;6.484;2022-11-15T02:43:34;13.53;;;8.53;;
3843;SDS011;1937;51.444;6.484;2022-11-15T02:46:26;13.87;;;7.97;;
3843;SDS011;1937;51.444;6.484;2022-11-15T02:49:16;14.80;;;9.23;;
3843;SDS011;1937;51.444;6.484;2022-11-15T02:51:46;16.33;;;9.60;;
3843;SDS011;1937;51.444;6.484;2022-11-15T02:54:18;15.17;;;9.77;;
3843;SDS011;1937;51.444;6.484;2022-11-15T02:56:49;18.67;;;9.60;;
3843;SDS011;1937;51.444;6.484;2022-11-15T02:59:24;15.90;;;9.03;;
3843;SDS011;1937;51.444;6.484;2022-11-15T03:02:08;15.57;;;8.80;;
3843;SDS011;1937;51.444;6.484;2022-11-15T03:04:47;12.80;;;8.30;;
3843;SDS011;1937;51.444;6.484;2022-11-15T03:07:24;17.10;;;9.20;;
3843;SDS011;1937;51.444;6.484;2022-11-15T03:09:57;13.33;;;9.20;;
3843;SDS011;1937;51.444;6.484;2022-11-15T03:12:34;11.90;;;8.40;;
3843;SDS011;1937;51.444;6.484;2022-11-15T03:15:08;13.00;;;8.30;;
3843;SDS011;1937;51.444;6.484;2022-11-15T03:17:45;10.70;;;7.77;;
3843;SDS011;1937;51.444;6.484;2022-11-15T03:20:19;11.87;;;8.50;;
3843;SDS011;1937;51.444;6.484;2022-11-15T03:22:48;9.70;;;7.00;;
3843;SDS011;1937;51.444;6.484;2022-11-15T03:25:19;14.10;;;7.33;;
3843;SDS011;1937;51.444;6.484;2022-11-15T03:27:51;11.30;;;7.60;;
3843;SDS011;1937;51.444;6.484;2022-11-15T03:30:23;13.40;;;8.23;;
3843;SDS011;1937;51.444;6.484;2022-11-15T03:32:54;12.97;;;8.20;;
3843;SDS011;1937;51.444;6.484;2022-11-15T03:35:24;15.83;;;8.90;;
3843;SDS011;1937;51.444;6.484;2022-11-15T03:37:57;10.20;;;7.90;;
3843;SDS011;1937;51.444;6.484;2022-11-15T03:40:33;11.80;;;8.63;;
3843;SDS011;1937;51.444;6.484;2022-11-15T03:43:07;12.60;;;8.50;;
3843;SDS011;1937;51.444;6.484;2022-11-15T03:45:43;16.60;;;8.40;;
3843;SDS011;1937;51.444;6.484;2022-11-15T03:48:20;13.77;;;7.60;;
3843;SDS011;1937;51.444;6.484;2022-11-15T03:50:51;14.10;;;8.57;;
3843;SDS011;1937;51.444;6.484;2022-11-15T03:53:21;12.43;;;8.63;;
3843;SDS011;1937;51.444;6.484;2022-11-15T03:55:49;7.83;;;6.43;;
3843;SDS011;1937;51.444;6.484;2022-11-15T03:58:17;12.77;;;7.40;;
3843;SDS011;1937;51.444;6.484;2022-11-15T04:00:47;11.67;;;7.60;;
3843;SDS011;1937;51.444;6.484;2022-11-15T04:03:16;10.40;;;7.67;;
3843;SDS011;1937;51.444;6.484;2022-11-15T04:05:46;12.87;;;8.07;;
3843;SDS011;1937;51.444;6.484;2022-11-15T04:08:14;11.87;;;8.43;;
3843;SDS011;1937;51.444;6.484;2022-11-15T04:10:43;12.77;;;8.80;;
3843;SDS011;1937;51.444;6.484;2022-11-15T04:13:11;13.40;;;9.00;;
3843;SDS011;1937;51.444;6.484;2022-11-15T04:15:39;15.03;;;9.17;;
3843;SDS011;1937;51.444;6.484;2022-11-15T04:18:08;17.90;;;8.60;;
3843;SDS011;1937;51.444;6.484;2022-11-15T04:20:36;16.07;;;9.10;;
3843;SDS011;1937;51.444;6.484;2022-11-15T04:23:23;14.57;;;9.23;;
3843;SDS011;1937;51.444;6.484;2022-11-15T04:26:10;16.20;;;8.53;;
3843;SDS011;1937;51.444;6.484;2022-11-15T04:28:41;15.17;;;9.67;;
3843;SDS011;1937;51.444;6.484;2022-11-15T04:31:23;19.67;;;9.47;;
3843;SDS011;1937;51.444;6.484;2022-11-15T04:33:51;14.93;;;9.40;;
3843;SDS011;1937;51.444;6.484;2022-11-15T04:36:21;10.50;;;8.47;;
3843;SDS011;1937;51.444;6.484;2022-11-15T04:39:09;15.17;;;9.70;;
3843;SDS011;1937;51.444;6.484;2022-11-15T04:41:37;16.43;;;9.10;;
3843;SDS011;1937;51.444;6.484;2022-11-15T04:44:05;17.83;;;9.67;;
3843;SDS011;1937;51.444;6.484;2022-11-15T04:46:34;18.40;;;9.67;;
3843;SDS011;1937;51.444;6.484;2022-11-15T04:49:02;17.63;;;10.53;;
3843;SDS011;1937;51.444;6.484;2022-11-15T04:51:31;15.13;;;9.70;;
3843;SDS011;1937;51.444;6.484;2022-11-15T04:53:59;14.37;;;10.50;;
3843;SDS011;1937;51.444;6.484;2022-11-15T04:56:30;16.23;;;9.87;;
3843;SDS011;1937;51.444;6.484;2022-11-15T04:58:58;17.97;;;11.13;;
3843;SDS011;1937;51.444;6.484;2022-11-15T05:01:26;16.43;;;11.00;;
3843;SDS011;1937;51.444;6.484;2022-11-15T05:03:54;14.40;;;9.93;;
3843;SDS011;1937;51.444;6.484;2022-11-15T05:06:40;13.33;;;9.50;;
3843;SDS011;1937;51.444;6.484;2022-11-15T05:09:09;16.07;;;10.30;;
3843;SDS011;1937;51.444;6.484;2022-11-15T05:11:39;18.73;;;10.30;;
3843;SDS011;1937;51.444;6.484;2022-11-15T05:14:07;14.10;;;9.77;;
3843;SDS011;1937;51.444;6.484;2022-11-15T05:16:36;15.93;;;9.90;;
3843;SDS011;1937;51.444;6.484;2022-11-15T05:19:05;17.00;;;10.33;;
3843;SDS011;1937;51.444;6.484;2022-11-15T05:21:34;16.50;;;10.03;;
3843;SDS011;1937;51.444;6.484;2022-11-15T05:24:03;16.83;;;9.63;;
3843;SDS011;1937;51.444;6.484;2022-11-15T05:26:32;14.37;;;9.60;;
3843;SDS011;1937;51.444;6.484;2022-11-15T05:29:03;22.87;;;11.37;;
3843;SDS011;1937;51.444;6.484;2022-11-15T05:31:31;16.13;;;10.73;;
3843;SDS011;1937;51.444;6.484;2022-11-15T05:33:59;15.13;;;10.57;;
3843;SDS011;1937;51.444;6.484;2022-11-15T05:36:31;14.17;;;8.90;;
3843;SDS011;1937;51.444;6.484;2022-11-15T05:39:02;16.37;;;11.07;;
3843;SDS011;1937;51.444;6.484;2022-11-15T05:41:33;19.20;;;10.30;;
3843;SDS011;1937;51.444;6.484;2022-11-15T05:44:07;15.30;;;10.00;;
3843;SDS011;1937;51.444;6.484;2022-11-15T05:46:39;16.83;;;9.80;;
3843;SDS011;1937;51.444;6.484;2022-11-15T05:49:10;13.13;;;8.83;;
3843;SDS011;1937;51.444;6.484;2022-11-15T05:51:41;16.07;;;11.37;;
3843;SDS011;1937;51.444;6.484;2022-11-15T05:54:13;13.17;;;9.37;;
3843;SDS011;1937;51.444;6.484;2022-11-15T05:56:42;15.00;;;9.43;;
3843;SDS011;1937;51.444;6.484;2022-11-15T05:59:12;16.27;;;9.30;;
3843;SDS011;1937;51.444;6.484;2022-11-15T06:01:42;15.47;;;10.00;;
3843;SDS011;1937;51.444;6.484;2022-11-15T06:04:11;15.37;;;9.27;;
3843;SDS011;1937;51.444;6.484;2022-11-15T06:06:39;14.40;;;8.50;;
3843;SDS011;1937;51.444;6.484;2022-11-15T06:09:08;15.37;;;9.07;;
3843;SDS011;1937;51.444;6.484;2022-11-15T06:11:36;16.00;;;8.83;;
3843;SDS011;1937;51.444;6.484;2022-11-15T06:14:05;14.37;;;8.50;;
3843;SDS011;1937;51.444;6.484;2022-11-15T06:16:34;11.97;;;8.30;;
3843;SDS011;1937;51.444;6.484;2022-11-15T06:19:03;14.53;;;7.77;;
3843;SDS011;1937;51.444;6.484;2022-11-15T06:21:31;15.70;;;8.97;;
3843;SDS011;1937;51.444;6.484;2022-11-15T06:24:00;14.43;;;9.37;;
3843;SDS011;1937;51.444;6.484;2022-11-15T06:26:29;13.50;;;8.53;;
3843;SDS011;1937;51.444;6.484;2022-11-15T06:28:57;13.23;;;8.43;;
3843;SDS011;1937;51.444;6.484;2022-11-15T06:31:28;11.03;;;7.80;;
3843;SDS011;1937;51.444;6.484;2022-11-15T06:33:58;11.77;;;7.53;;
3843;SDS011;1937;51.444;6.484;2022-11-15T06:36:26;13.70;;;7.37;;
3843;SDS011;1937;51.444;6.484;2022-11-15T06:38:55;13.73;;;7.77;;
3843;SDS011;1937;51.444;6.484;2022-11-15T06:41:24;14.50;;;8.30;;
3843;SDS011;1937;51.444;6.484;2022-11-15T06:43:52;11.50;;;7.33;;
3843;SDS011;1937;51.444;6.484;2022-11-15T06:46:22;10.53;;;8.10;;
3843;SDS011;1937;51.444;6.484;2022-11-15T06:48:50;11.90;;;7.40;;
3843;SDS011;1937;51.444;6.484;2022-11-15T06:51:20;9.50;;;7.20;;
3843;SDS011;1937;51.444;6.484;2022-11-15T06:53:49;11.10;;;6.73;;
3843;SDS011;1937;51.444;6.484;2022-11-15T06:56:17;11.80;;;7.40;;
3843;SDS011;1937;51.444;6.484;2022-11-15T06:58:46;11.27;;;7.20;;
3843;SDS011;1937;51.444;6.484;2022-11-15T07:01:15;14.10;;;7.70;;
3843;SDS011;1937;51.444;6.484;2022-11-15T07:03:43;12.33;;;7.20;;
3843;SDS011;1937;51.444;6.484;2022-11-15T07:06:12;11.60;;;7.73;;
3843;SDS011;1937;51.444;6.484;2022-11-15T07:08:41;13.10;;;8.13;;
3843;SDS011;1937;51.444;6.484;2022-11-15T07:11:10;9.70;;;7.13;;
3843;SDS011;1937;51.444;6.484;2022-11-15T07:13:39;11.93;;;7.43;;
3843;SDS011;1937;51.444;6.484;2022-11-15T07:16:09;11.73;;;6.13;;
3843;SDS011;1937;51.444;6.484;2022-11-15T07:18:38;11.50;;;6.50;;
3843;SDS011;1937;51.444;6.484;2022-11-15T07:21:07;9.87;;;6.30;;
3843;SDS011;1937;51.444;6.484;2022-11-15T07:23:36;8.07;;;5.90;;
3843;SDS011;1937;51.444;6.484;2022-11-15T07:26:07;8.53;;;5.50;;
3843;SDS011;1937;51.444;6.484;2022-11-15T07:28:35;10.00;;;5.00;;
3843;SDS011;1937;51.444;6.484;2022-11-15T07:31:04;6.80;;;4.80;;
3843;SDS011;1937;51.444;6.484;2022-11-15T07:33:34;6.53;;;4.97;;
3843;SDS011;1937;51.444;6.484;2022-11-15T07:36:04;11.87;;;4.97;;
3843;SDS011;1937;51.444;6.484;2022-11-15T07:38:34;7.17;;;4.90;;
3843;SDS011;1937;51.444;6.484;2022-11-15T07:41:03;5.17;;;4.67;;
3843;SDS011;1937;51.444;6.484;2022-11-15T07:43:34;5.80;;;3.77;;
3843;SDS011;1937;51.444;6.484;2022-11-15T07:46:03;6.03;;;4.13;;
3843;SDS011;1937;51.444;6.484;2022-11-15T07:48:34;4.33;;;3.43;;
3843;SDS011;1937;51.444;6.484;2022-11-15T07:51:04;4.83;;;3.73;;
3843;SDS011;1937;51.444;6.484;2022-11-15T07:53:35;3.20;;;2.90;;
3843;SDS011;1937;51.444;6.484;2022-11-15T07:56:07;2.70;;;2.43;;
3843;SDS011;1937;51.444;6.484;2022-11-15T07:58:37;3.23;;;2.77;;
3843;SDS011;1937;51.444;6.484;2022-11-15T08:01:08;2.60;;;2.40;;
3843;SDS011;1937;51.444;6.484;2022-11-15T08:03:39;4.80;;;3.00;;
3843;SDS011;1937;51.444;6.484;2022-11-15T08:06:09;3.97;;;3.10;;
3843;SDS011;1937;51.444;6.484;2022-11-15T08:08:40;3.30;;;2.40;;
3843;SDS011;1937;51.444;6.484;2022-11-15T08:11:10;4.20;;;2.87;;
3843;SDS011;1937;51.444;6.484;2022-11-15T08:13:40;5.13;;;3.33;;
3843;SDS011;1937;51.444;6.484;2022-11-15T08:16:08;5.50;;;2.40;;
3843;SDS011;1937;51.444;6.484;2022-11-15T08:18:37;3.73;;;2.33;;
3843;SDS011;1937;51.444;6.484;2022-11-15T08:21:08;2.97;;;2.10;;
3843;SDS011;1937;51.444;6.484;2022-11-15T08:23:39;2.60;;;2.40;;
3843;SDS011;1937;51.444;6.484;2022-11-15T08:26:08;3.60;;;2.30;;
3843;SDS011;1937;51.444;6.484;2022-11-15T08:28:37;1.67;;;1.50;;
3843;SDS011;1937;51.444;6.484;2022-11-15T08:31:12;3.13;;;1.87;;
3843;SDS011;1937;51.444;6.484;2022-11-15T08:33:42;2.93;;;2.23;;
3843;SDS011;1937;51.444;6.484;2022-11-15T08:36:12;6.80;;;2.10;;
3843;SDS011;1937;51.444;6.484;2022-11-15T08:38:42;2.60;;;1.80;;
3843;SDS011;1937;51.444;6.484;2022-11-15T08:41:12;2.07;;;1.97;;
3843;SDS011;1937;51.444;6.484;2022-11-15T08:43:49;2.63;;;2.40;;
3843;SDS011;1937;51.444;6.484;2022-11-15T08:46:19;2.80;;;2.30;;
3843;SDS011;1937;51.444;6.484;2022-11-15T08:48:48;4.03;;;2.50;;
3843;SDS011;1937;51.444;6.484;2022-11-15T08:51:16;3.77;;;2.97;;
3843;SDS011;1937;51.444;6.484;2022-11-15T08:53:45;8.70;;;2.40;;
3843;SDS011;1937;51.444;6.484;2022-11-15T08:56:16;3.47;;;2.40;;
3843;SDS011;1937;51.444;6.484;2022-11-15T08:58:46;5.00;;;3.30;;
3843;SDS011;1937;51.444;6.484;2022-11-15T09:01:16;5.00;;;2.50;;
3843;SDS011;1937;51.444;6.484;2022-11-15T09:03:46;3.60;;;2.43;;
3843;SDS011;1937;51.444;6.484;2022-11-15T09:06:15;4.13;;;2.50;;
3843;SDS011;1937;51.444;6.484;2022-11-15T09:08:43;8.90;;;2.17;;
3843;SDS011;1937;51.444;6.484;2022-11-15T09:11:11;2.10;;;1.90;;
3843;SDS011;1937;51.444;6.484;2022-11-15T09:13:41;4.30;;;2.40;;
3843;SDS011;1937;51.444;6.484;2022-11-15T09:16:10;3.70;;;2.20;;
3843;SDS011;1937;51.444;6.484;2022-11-15T09:18:40;2.30;;;2.00;;
3843;SDS011;1937;51.444;6.484;2022-11-15T09:21:09;4.60;;;2.17;;
3843;SDS011;1937;51.444;6.484;2022-11-15T09:23:38;2.50;;;1.97;;
3843;SDS011;1937;51.444;6.484;2022-11-15T09:26:06;2.50;;;1.83;;
3843;SDS011;1937;51.444;6.484;2022-11-15T09:28:35;2.87;;;2.13;;
3843;SDS011;1937;51.444;6.484;2022-11-15T09:31:06;3.10;;;1.93;;
3843;SDS011;1937;51.444;6.484;2022-11-15T09:33:36;6.10;;;2.03;;
3843;SDS011;1937;51.444;6.484;2022-11-15T09:36:05;3.30;;;2.10;;
3843;SDS011;1937;51.444;6.484;2022-11-15T09:38:36;2.97;;;2.07;;
3843;SDS011;1937;51.444;6.484;2022-11-15T09:44:10;2.57;;;2.37;;
3843;SDS011;1937;51.444;6.484;2022-11-15T09:46:54;4.37;;;2.30;;
3843;SDS011;1937;51.444;6.484;2022-11-15T09:49:29;6.50;;;2.50;;
3843;SDS011;1937;51.444;6.484;2022-11-15T09:52:00;2.30;;;2.03;;
3843;SDS011;1937;51.444;6.484;2022-11-15T09:54:32;6.50;;;1.90;;
3843;SDS011;1937;51.444;6.484;2022-11-15T09:57:06;5.00;;;1.97;;
3843;SDS011;1937;51.444;6.484;2022-11-15T09:59:44;2.53;;;2.00;;
3843;SDS011;1937;51.444;6.484;2022-11-15T10:02:20;2.37;;;2.13;;
3843;SDS011;1937;51.444;6.484;2022-11-15T10:05:06;2.60;;;1.50;;
3843;SDS011;1937;51.444;6.484;2022-11-15T10:07:40;3.27;;;1.60;;
3843;SDS011;1937;51.444;6.484;2022-11-15T10:10:14;2.80;;;1.43;;
3843;SDS011;1937;51.444;6.484;2022-11-15T10:12:50;2.67;;;2.20;;
3843;SDS011;1937;51.444;6.484;2022-11-15T10:15:21;2.47;;;1.90;;
3843;SDS011;1937;51.444;6.484;2022-11-15T10:17:54;3.30;;;1.93;;
3843;SDS011;1937;51.444;6.484;2022-11-15T10:20:40;8.03;;;2.20;;
3843;SDS011;1937;51.444;6.484;2022-11-15T10:23:13;4.80;;;2.10;;
3843;SDS011;1937;51.444;6.484;2022-11-15T10:25:45;2.70;;;2.23;;
3843;SDS011;1937;51.444;6.484;2022-11-15T10:28:20;3.10;;;1.63;;
3843;SDS011;1937;51.444;6.484;2022-11-15T10:30:52;3.53;;;2.13;;
3843;SDS011;1937;51.444;6.484;2022-11-15T10:33:26;2.67;;;2.03;;
3843;SDS011;1937;51.444;6.484;2022-11-15T10:36:16;4.27;;;1.90;;
3843;SDS011;1937;51.444;6.484;2022-11-15T10:38:51;3.00;;;2.70;;
3843;SDS011;1937;51.444;6.484;2022-11-15T10:41:21;2.10;;;1.90;;
3843;SDS011;1937;51.444;6.484;2022-11-15T10:44:07;3.80;;;1.87;;
3843;SDS011;1937;51.444;6.484;2022-11-15T10:46:37;2.30;;;2.10;;
3843;SDS011;1937;51.444;6.484;2022-11-15T10:49:14;2.00;;;1.80;;
3843;SDS011;1937;51.444;6.484;2022-11-15T10:51:47;4.30;;;1.83;;
3843;SDS011;1937;51.444;6.484;2022-11-15T10:54:22;3.40;;;1.63;;
3843;SDS011;1937;51.444;6.484;2022-11-15T10:56:57;1.50;;;1.40;;
3843;SDS011;1937;51.444;6.484;2022-11-15T10:59:34;2.23;;;1.50;;
3843;SDS011;1937;51.444;6.484;2022-11-15T11:04:56;2.93;;;1.67;;
3843;SDS011;1937;51.444;6.484;2022-11-15T11:07:25;3.20;;;2.10;;
3843;SDS011;1937;51.444;6.484;2022-11-15T11:10:00;3.93;;;2.20;;
3843;SDS011;1937;51.444;6.484;2022-11-15T11:12:32;2.17;;;1.97;;
3843;SDS011;1937;51.444;6.484;2022-11-15T11:15:05;2.50;;;1.97;;
3843;SDS011;1937;51.444;6.484;2022-11-15T11:17:45;2.90;;;1.73;;
3843;SDS011;1937;51.444;6.484;2022-11-15T11:20:20;4.47;;;2.20;;
3843;SDS011;1937;51.444;6.484;2022-11-15T11:22:56;1.40;;;1.30;;
3843;SDS011;1937;51.444;6.484;2022-11-15T11:25:45;4.30;;;1.20;;
3843;SDS011;1937;51.444;6.484;2022-11-15T11:28:25;2.13;;;1.50;;
3843;SDS011;1937;51.444;6.484;2022-11-15T11:31:00;1.37;;;1.27;;
3843;SDS011;1937;51.444;6.484;2022-11-15T11:33:37;1.50;;;1.40;;
3843;SDS011;1937;51.444;6.484;2022-11-15T11:36:16;2.70;;;1.53;;
3843;SDS011;1937;51.444;6.484;2022-11-15T11:38:53;1.80;;;1.50;;
3843;SDS011;1937;51.444;6.484;2022-11-15T11:41:42;1.83;;;1.73;;
3843;SDS011;1937;51.444;6.484;2022-11-15T11:44:24;2.50;;;1.40;;
3843;SDS011;1937;51.444;6.484;2022-11-15T11:46:59;1.40;;;1.30;;
3843;SDS011;1937;51.444;6.484;2022-11-15T11:49:31;1.70;;;1.50;;
3843;SDS011;1937;51.444;6.484;2022-11-15T11:52:06;2.77;;;1.07;;
3843;SDS011;1937;51.444;6.484;2022-11-15T11:54:43;3.20;;;1.53;;
3843;SDS011;1937;51.444;6.484;2022-11-15T11:57:17;3.13;;;1.90;;
3843;SDS011;1937;51.444;6.484;2022-11-15T11:59:55;4.80;;;1.70;;
3843;SDS011;1937;51.444;6.484;2022-11-15T12:02:28;2.33;;;1.20;;
3843;SDS011;1937;51.444;6.484;2022-11-15T12:05:03;4.70;;;1.30;;
3843;SDS011;1937;51.444;6.484;2022-11-15T12:07:36;7.73;;;1.37;;
3843;SDS011;1937;51.444;6.484;2022-11-15T12:10:15;1.87;;;1.17;;
3843;SDS011;1937;51.444;6.484;2022-11-15T12:12:49;2.20;;;1.53;;
3843;SDS011;1937;51.444;6.484;2022-11-15T12:15:23;1.77;;;1.50;;
3843;SDS011;1937;51.444;6.484;2022-11-15T12:17:56;2.10;;;1.30;;
3843;SDS011;1937;51.444;6.484;2022-11-15T12:20:27;4.33;;;1.53;;
3843;SDS011;1937;51.444;6.484;2022-11-15T12:23:01;1.20;;;1.03;;
3843;SDS011;1937;51.444;6.484;2022-11-15T12:25:45;1.77;;;1.63;;
3843;SDS011;1937;51.444;6.484;2022-11-15T12:28:20;2.40;;;1.23;;
3843;SDS011;1937;51.444;6.484;2022-11-15T12:31:03;3.93;;;1.40;;
3843;SDS011;1937;51.444;6.484;2022-11-15T12:33:38;2.70;;;1.33;;
3843;SDS011;1937;51.444;6.484;2022-11-15T12:36:09;1.73;;;1.40;;
3843;SDS011;1937;51.444;6.484;2022-11-15T12:38:56;4.83;;;1.83;;
3843;SDS011;1937;51.444;6.484;2022-11-15T12:41:27;4.70;;;2.10;;
3843;SDS011;1937;51.444;6.484;2022-11-15T12:43:58;2.13;;;1.33;;
3843;SDS011;1937;51.444;6.484;2022-11-15T12:49:43;3.13;;;1.30;;
3843;SDS011;1937;51.444;6.484;2022-11-15T12:52:11;2.27;;;1.80;;
3843;SDS011;1937;51.444;6.484;2022-11-15T12:57:53;1.73;;;1.30;;
3843;SDS011;1937;51.444;6.484;2022-11-15T13:00:40;3.13;;;1.27;;
3843;SDS011;1937;51.444;6.484;2022-11-15T13:03:16;2.37;;;1.33;;
3843;SDS011;1937;51.444;6.484;2022-11-15T13:08:58;1.70;;;1.50;;
3843;SDS011;1937;51.444;6.484;2022-11-15T13:17:32;5.30;;;1.40;;
3843;SDS011;1937;51.444;6.484;2022-11-15T13:22:59;2.70;;;1.40;;
3843;SDS011;1937;51.444;6.484;2022-11-15T13:25:57;2.30;;;1.27;;
3843;SDS011;1937;51.444;6.484;2022-11-15T13:28:36;2.10;;;1.50;;
3843;SDS011;1937;51.444;6.484;2022-11-15T13:31:25;5.70;;;2.00;;
3843;SDS011;1937;51.444;6.484;2022-11-15T13:33:56;1.97;;;1.43;;
3843;SDS011;1937;51.444;6.484;2022-11-15T13:36:29;6.30;;;1.50;;
3843;SDS011;1937;51.444;6.484;2022-11-15T13:39:00;9.03;;;1.57;;
3843;SDS011;1937;51.444;6.484;2022-11-15T13:41:30;4.83;;;1.60;;
3843;SDS011;1937;51.444;6.484;2022-11-15T13:44:00;9.43;;;1.80;;
3843;SDS011;1937;51.444;6.484;2022-11-15T13:46:30;3.67;;;1.53;;
3843;SDS011;1937;51.444;6.484;2022-11-15T13:49:03;1.80;;;1.40;;
3843;SDS011;1937;51.444;6.484;2022-11-15T13:51:38;3.67;;;1.53;;
3843;SDS011;1937;51.444;6.484;2022-11-15T13:54:14;2.30;;;1.40;;
3843;SDS011;1937;51.444;6.484;2022-11-15T13:56:47;3.60;;;1.53;;
3843;SDS011;1937;51.444;6.484;2022-11-15T13:59:23;3.40;;;1.53;;
3843;SDS011;1937;51.444;6.484;2022-11-15T14:01:53;9.40;;;2.30;;
3843;SDS011;1937;51.444;6.484;2022-11-15T14:04:45;2.97;;;1.13;;
3843;SDS011;1937;51.444;6.484;2022-11-15T14:07:18;2.63;;;1.77;;
3843;SDS011;1937;51.444;6.484;2022-11-15T14:09:48;2.70;;;1.40;;
3843;SDS011;1937;51.444;6.484;2022-11-15T14:12:24;4.83;;;2.50;;
3843;SDS011;1937;51.444;6.484;2022-11-15T14:14:54;3.63;;;1.50;;
3843;SDS011;1937;51.444;6.484;2022-11-15T14:17:34;3.10;;;1.70;;
3843;SDS011;1937;51.444;6.484;2022-11-15T14:22:57;3.83;;;1.70;;
3843;SDS011;1937;51.444;6.484;2022-11-15T14:25:27;4.47;;;1.60;;
3843;SDS011;1937;51.444;6.484;2022-11-15T14:28:16;5.30;;;1.50;;
3843;SDS011;1937;51.444;6.484;2022-11-15T14:30:56;9.60;;;1.90;;
3843;SDS011;1937;51.444;6.484;2022-11-15T14:33:26;1.90;;;1.37;;
3843;SDS011;1937;51.444;6.484;2022-11-15T14:35:57;1.50;;;1.30;;
3843;SDS011;1937;51.444;6.484;2022-11-15T14:38:31;5.60;;;1.47;;
3843;SDS011;1937;51.444;6.484;2022-11-15T14:41:00;2.23;;;1.40;;
3843;SDS011;1937;51.444;6.484;2022-11-15T14:43:29;4.03;;;2.20;;
3843;SDS011;1937;51.444;6.484;2022-11-15T14:45:58;2.13;;;1.60;;
3843;SDS011;1937;51.444;6.484;2022-11-15T14:48:26;2.50;;;1.43;;
3843;SDS011;1937;51.444;6.484;2022-11-15T14:50:55;2.80;;;1.70;;
3843;SDS011;1937;51.444;6.484;2022-11-15T14:53:24;2.93;;;1.60;;
3843;SDS011;1937;51.444;6.484;2022-11-15T14:55:54;2.53;;;2.07;;
3843;SDS011;1937;51.444;6.484;2022-11-15T14:58:22;2.97;;;1.50;;
3843;SDS011;1937;51.444;6.484;2022-11-15T15:00:51;3.47;;;1.70;;
3843;SDS011;1937;51.444;6.484;2022-11-15T15:03:19;3.67;;;1.70;;
3843;SDS011;1937;51.444;6.484;2022-11-15T15:05:47;5.63;;;1.80;;
3843;SDS011;1937;51.444;6.484;2022-11-15T15:08:16;4.50;;;2.10;;
3843;SDS011;1937;51.444;6.484;2022-11-15T15:10:45;5.33;;;2.20;;
3843;SDS011;1937;51.444;6.484;2022-11-15T15:13:16;3.67;;;2.90;;
3843;SDS011;1937;51.444;6.484;2022-11-15T15:15:47;3.00;;;2.20;;
3843;SDS011;1937;51.444;6.484;2022-11-15T15:18:16;7.13;;;2.23;;
3843;SDS011;1937;51.444;6.484;2022-11-15T15:20:46;2.60;;;2.13;;
3843;SDS011;1937;51.444;6.484;2022-11-15T15:23:20;2.60;;;2.00;;
3843;SDS011;1937;51.444;6.484;2022-11-15T15:25:51;3.33;;;2.30;;
3843;SDS011;1937;51.444;6.484;2022-11-15T15:28:22;2.90;;;1.97;;
3843;SDS011;1937;51.444;6.484;2022-11-15T15:30:50;2.57;;;2.37;;
3843;SDS011;1937;51.444;6.484;2022-11-15T15:33:18;6.83;;;3.00;;
3843;SDS011;1937;51.444;6.484;2022-11-15T15:35:47;7.23;;;2.47;;
3843;SDS011;1937;51.444;6.484;2022-11-15T15:38:15;3.50;;;2.33;;
3843;SDS011;1937;51.444;6.484;2022-11-15T15:40:44;6.10;;;2.57;;
3843;SDS011;1937;51.444;6.484;2022-11-15T15:43:12;3.77;;;2.43;;
3843;SDS011;1937;51.444;6.484;2022-11-15T15:45:42;5.00;;;2.60;;
3843;SDS011;1937;51.444;6.484;2022-11-15T15:48:11;4.13;;;2.23;;
3843;SDS011;1937;51.444;6.484;2022-11-15T15:50:41;5.50;;;2.43;;
3843;SDS011;1937;51.444;6.484;2022-11-15T15:53:11;2.50;;;2.30;;
3843;SDS011;1937;51.444;6.484;2022-11-15T15:55:39;5.00;;;2.70;;
3843;SDS011;1937;51.444;6.484;2022-11-15T15:58:08;2.90;;;2.40;;
3843;SDS011;1937;51.444;6.484;2022-11-15T16:00:36;4.07;;;2.80;;
3843;SDS011;1937;51.444;6.484;2022-11-15T16:03:05;5.60;;;2.57;;
3843;SDS011;1937;51.444;6.484;2022-11-15T16:05:34;4.50;;;2.37;;